createdAt,value
2019-02-26T00:01:08.242Z,89.60
2019-02-26T00:03:35.415Z,88.80
2019-02-26T00:06:03.729Z,88.80
2019-02-26T00:08:31.707Z,88.90
2019-02-26T00:11:00.802Z,88.80
2019-02-26T00:13:29.156Z,88.80
2019-02-26T00:15:55.604Z,88.80
2019-02-26T00:18:23.559Z,88.80
2019-02-26T00:20:50.234Z,88.90
2019-02-26T00:23:16.777Z,88.90
2019-02-26T00:25:43.418Z,88.80
2019-02-26T00:28:11.105Z,88.80
2019-02-26T00:30:40.254Z,88.70
2019-02-26T00:33:06.610Z,88.80
2019-02-26T00:35:33.174Z,88.80
2019-02-26T00:38:00.502Z,88.80
2019-02-26T00:40:27.102Z,88.80
2019-02-26T00:42:55.033Z,88.80
2019-02-26T00:45:24.783Z,88.80
2019-02-26T00:47:50.871Z,88.80
2019-02-26T00:50:17.444Z,88.80
2019-02-26T00:52:44.046Z,88.80
2019-02-26T00:55:10.719Z,88.80
2019-02-26T00:57:38.818Z,89.70
2019-02-26T01:00:09.822Z,88.90
2019-02-26T01:02:36.570Z,88.80
2019-02-26T01:05:04.036Z,88.80
2019-02-26T01:07:31.960Z,88.90
2019-02-26T01:09:59.247Z,88.90
2019-02-26T01:12:25.887Z,88.80
2019-02-26T01:14:52.623Z,89.30
2019-02-26T01:17:19.199Z,88.90
2019-02-26T01:19:46.183Z,89.00
2019-02-26T01:22:12.857Z,88.80
2019-02-26T01:24:39.467Z,88.90
2019-02-26T01:27:06.066Z,88.80
2019-02-26T01:29:32.651Z,88.90
2019-02-26T01:31:59.358Z,88.90
2019-02-26T01:34:26.095Z,89.70
2019-02-26T01:36:53.001Z,89.00
2019-02-26T01:39:21.598Z,88.90
2019-02-26T01:41:50.379Z,88.80
2019-02-26T01:44:16.809Z,88.90
2019-02-26T01:46:43.947Z,88.90
2019-02-26T01:49:10.883Z,88.90
2019-02-26T01:51:37.461Z,89.00
2019-02-26T01:54:05.280Z,89.00
2019-02-26T01:56:34.015Z,89.00
2019-02-26T01:59:02.296Z,89.00
2019-02-26T02:01:29.717Z,88.70
2019-02-26T02:03:56.463Z,88.90
2019-02-26T02:06:23.160Z,89.00
2019-02-26T02:08:50.581Z,89.00
2019-02-26T02:11:18.455Z,89.00
2019-02-26T02:13:45.143Z,88.90
2019-02-26T02:16:11.694Z,88.90
2019-02-26T02:18:38.308Z,88.90
2019-02-26T02:21:04.941Z,89.00
2019-02-26T02:23:31.790Z,88.90
2019-02-26T02:26:02.149Z,88.90
2019-02-26T02:28:30.824Z,89.00
2019-02-26T02:30:56.125Z,88.90
2019-02-26T02:33:24.184Z,88.90
2019-02-26T02:35:51.635Z,88.90
2019-02-26T02:38:20.382Z,89.00
2019-02-26T02:40:48.912Z,89.10
2019-02-26T02:43:17.535Z,88.70
2019-02-26T02:45:43.543Z,88.90
2019-02-26T02:48:11.760Z,89.00
2019-02-26T02:50:38.972Z,88.90
2019-02-26T02:53:05.659Z,89.00
2019-02-26T02:55:32.253Z,88.90
2019-02-26T02:58:00.521Z,88.90
2019-02-26T03:00:28.740Z,89.30
2019-02-26T03:02:58.122Z,88.80
2019-02-26T03:05:24.519Z,89.00
2019-02-26T03:07:53.492Z,89.10
2019-02-26T03:10:19.660Z,89.00
2019-02-26T03:12:48.604Z,88.90
2019-02-26T03:15:16.017Z,88.90
2019-02-26T03:17:42.965Z,88.80
2019-02-26T03:20:10.158Z,89.00
2019-02-26T03:22:39.031Z,88.90
2019-02-26T03:25:05.285Z,89.00
2019-02-26T03:27:34.145Z,88.90
2019-02-26T03:30:02.008Z,88.90
2019-02-26T03:32:29.346Z,88.90
2019-02-26T03:34:56.170Z,89.00
2019-02-26T03:37:23.368Z,89.50
2019-02-26T03:39:55.216Z,88.90
2019-02-26T03:42:21.518Z,89.00
2019-02-26T03:44:47.998Z,88.90
2019-02-26T03:47:16.283Z,89.00
2019-02-26T03:49:43.392Z,88.90
2019-02-26T03:52:10.037Z,89.00
2019-02-26T03:54:37.862Z,89.00
2019-02-26T03:57:05.451Z,89.00
2019-02-26T03:59:33.233Z,88.90
2019-02-26T04:01:59.845Z,89.00
2019-02-26T04:04:30.463Z,89.10
2019-02-26T04:06:55.897Z,89.00
2019-02-26T04:09:23.281Z,89.00
2019-02-26T04:11:51.070Z,88.90
2019-02-26T04:14:20.170Z,88.90
2019-02-26T04:16:46.856Z,88.80
2019-02-26T04:19:13.441Z,89.00
2019-02-26T04:21:41.165Z,88.90
2019-02-26T04:24:08.592Z,89.10
2019-02-26T04:26:36.331Z,88.90
2019-02-26T04:29:03.070Z,88.90
2019-02-26T04:31:29.822Z,88.90
2019-02-26T04:33:58.929Z,88.90
2019-02-26T04:36:24.960Z,89.00
2019-02-26T04:38:53.178Z,88.90
2019-02-26T04:41:20.231Z,88.90
2019-02-26T04:43:46.901Z,88.90
2019-02-26T04:46:13.742Z,88.90
2019-02-26T04:48:41.459Z,88.90
2019-02-26T04:51:08.085Z,89.00
2019-02-26T04:53:36.462Z,89.00
2019-02-26T04:56:05.949Z,88.90
2019-02-26T04:58:34.199Z,89.00
2019-02-26T05:01:00.604Z,89.00
2019-02-26T05:03:27.274Z,89.00
2019-02-26T05:05:56.435Z,88.90
2019-02-26T05:08:22.485Z,89.00
2019-02-26T05:10:51.759Z,89.00
2019-02-26T05:13:17.628Z,88.90
2019-02-26T05:15:44.672Z,88.90
2019-02-26T05:18:11.629Z,89.00
2019-02-26T05:20:40.133Z,88.90
2019-02-26T05:23:06.812Z,89.00
2019-02-26T05:25:35.055Z,89.00
2019-02-26T05:28:03.802Z,89.00
2019-02-26T05:30:30.582Z,88.90
2019-02-26T05:33:00.252Z,88.90
2019-02-26T05:35:25.679Z,89.00
2019-02-26T05:37:52.360Z,89.00
2019-02-26T05:40:21.969Z,89.00
2019-02-26T05:42:47.724Z,89.00
2019-02-26T05:45:14.364Z,88.90
2019-02-26T05:47:42.901Z,89.10
2019-02-26T05:50:14.295Z,89.00
2019-02-26T05:52:38.996Z,89.10
2019-02-26T05:55:05.608Z,89.00
2019-02-26T05:57:32.821Z,89.10
2019-02-26T05:59:59.581Z,89.10
2019-02-26T06:02:26.578Z,89.00
2019-02-26T06:04:53.245Z,89.00
2019-02-26T06:07:24.066Z,89.10
2019-02-26T06:09:50.999Z,89.10
2019-02-26T06:12:16.879Z,89.00
2019-02-26T06:14:43.508Z,89.10
2019-02-26T06:17:12.528Z,89.00
2019-02-26T06:19:42.179Z,89.00
2019-02-26T06:22:08.946Z,89.00
2019-02-26T06:24:38.102Z,89.10
2019-02-26T06:27:08.608Z,89.00
2019-02-26T06:29:34.909Z,89.00
2019-02-26T06:32:03.050Z,89.00
2019-02-26T06:34:30.303Z,89.00
2019-02-26T06:36:56.907Z,89.00
2019-02-26T06:39:24.497Z,89.00
2019-02-26T06:41:52.285Z,89.00
2019-02-26T06:44:20.787Z,89.00
2019-02-26T06:46:47.520Z,89.00
2019-02-26T06:49:14.996Z,89.00
2019-02-26T06:51:43.359Z,89.00
2019-02-26T06:54:11.347Z,89.00
2019-02-26T06:56:43.731Z,89.00
2019-02-26T06:59:09.878Z,89.00
2019-02-26T07:01:37.939Z,89.00
2019-02-26T07:04:07.080Z,89.00
2019-02-26T07:06:34.905Z,89.00
2019-02-26T07:09:01.638Z,89.00
2019-02-26T07:11:30.533Z,89.10
2019-02-26T07:13:58.341Z,89.00
2019-02-26T07:16:25.566Z,89.10
2019-02-26T07:18:52.334Z,89.00
2019-02-26T07:21:19.436Z,89.10
2019-02-26T07:23:46.150Z,89.00
2019-02-26T07:26:13.640Z,89.00
2019-02-26T07:28:42.226Z,89.00
2019-02-26T07:31:12.148Z,89.00
2019-02-26T07:33:39.583Z,89.00
2019-02-26T07:36:06.868Z,89.00
2019-02-26T07:38:40.869Z,89.00
2019-02-26T07:41:03.620Z,89.10
2019-02-26T07:43:30.333Z,89.10
2019-02-26T07:45:56.974Z,89.30
2019-02-26T07:48:26.403Z,89.10
2019-02-26T07:50:52.593Z,89.10
2019-02-26T07:53:21.950Z,89.10
2019-02-26T07:55:47.975Z,89.10
2019-02-26T07:58:15.580Z,89.00
2019-02-26T08:00:47.161Z,89.10
2019-02-26T08:03:11.696Z,89.20
2019-02-26T08:05:38.402Z,89.10
2019-02-26T08:08:06.898Z,89.20
2019-02-26T08:10:37.168Z,89.20
2019-02-26T08:13:03.359Z,89.20
2019-02-26T08:15:32.864Z,89.20
2019-02-26T08:18:01.301Z,89.20
2019-02-26T08:20:30.225Z,89.20
2019-02-26T08:22:58.592Z,89.20
2019-02-26T08:25:24.999Z,89.20
2019-02-26T08:27:53.552Z,89.30
2019-02-26T08:30:22.933Z,89.10
2019-02-26T08:32:51.489Z,90.00
2019-02-26T08:35:18.830Z,89.30
2019-02-26T08:37:45.901Z,89.30
2019-02-26T08:40:12.749Z,89.30
2019-02-26T08:42:39.571Z,89.20
2019-02-26T08:45:06.207Z,89.30
2019-02-26T08:47:33.193Z,89.30
2019-02-26T08:50:01.749Z,89.30
2019-02-26T08:52:29.375Z,89.30
2019-02-26T08:54:56.297Z,89.30
2019-02-26T08:57:23.089Z,89.30
2019-02-26T08:59:52.054Z,89.40
2019-02-26T09:02:18.247Z,89.20
2019-02-26T09:04:47.334Z,89.40
2019-02-26T09:07:14.095Z,89.30
2019-02-26T09:09:41.857Z,89.20
2019-02-26T09:12:08.535Z,90.00
2019-02-26T09:14:37.557Z,89.10
2019-02-26T09:17:04.704Z,89.50
2019-02-26T09:19:33.164Z,89.40
2019-02-26T09:22:01.251Z,89.40
2019-02-26T09:24:27.911Z,89.30
2019-02-26T09:26:57.232Z,89.50
2019-02-26T09:29:23.454Z,89.40
2019-02-26T09:31:50.000Z,89.50
2019-02-26T09:34:16.718Z,89.50
2019-02-26T09:36:45.785Z,89.50
2019-02-26T09:39:13.244Z,90.10
2019-02-26T09:41:40.793Z,89.50
2019-02-26T09:44:09.656Z,89.50
2019-02-26T09:46:38.813Z,89.50
2019-02-26T09:49:11.823Z,89.60
2019-02-26T09:51:37.546Z,89.50
2019-02-26T09:54:06.426Z,89.60
2019-02-26T09:56:33.486Z,89.60
2019-02-26T09:59:02.295Z,89.50
2019-02-26T10:01:30.171Z,89.50
2019-02-26T10:04:00.806Z,89.60
2019-02-26T10:06:25.723Z,89.50
2019-02-26T10:08:53.272Z,89.50
2019-02-26T10:11:23.037Z,89.60
2019-02-26T10:13:51.158Z,89.50
2019-02-26T10:16:21.129Z,89.40
2019-02-26T10:18:47.408Z,89.60
2019-02-26T10:21:17.579Z,88.90
2019-02-26T10:23:47.203Z,89.60
2019-02-26T10:26:11.851Z,89.70
2019-02-26T10:28:42.016Z,89.70
2019-02-26T10:31:09.554Z,89.70
2019-02-26T10:33:37.800Z,89.70
2019-02-26T10:36:05.436Z,89.50
2019-02-26T10:38:33.624Z,89.60
2019-02-26T10:41:01.845Z,89.70
2019-02-26T10:43:28.735Z,89.50
2019-02-26T10:45:56.698Z,89.70
2019-02-26T10:48:24.998Z,89.70
2019-02-26T10:50:52.143Z,89.70
2019-02-26T10:53:20.382Z,89.60
2019-02-26T10:55:47.401Z,89.50
2019-02-26T10:58:14.004Z,89.70
2019-02-26T11:00:42.421Z,89.70
2019-02-26T11:03:11.981Z,89.70
2019-02-26T11:05:39.841Z,89.60
2019-02-26T11:08:09.151Z,89.60
2019-02-26T11:10:39.342Z,89.60
2019-02-26T11:13:03.232Z,89.70
2019-02-26T11:15:32.943Z,89.60
2019-02-26T11:17:58.575Z,90.10
2019-02-26T11:20:27.683Z,89.60
2019-02-26T11:22:53.502Z,89.60
2019-02-26T11:25:22.464Z,89.60
2019-02-26T11:27:48.705Z,89.60
2019-02-26T11:30:17.601Z,89.60
2019-02-26T11:32:43.845Z,89.60
2019-02-26T11:35:10.939Z,89.50
2019-02-26T11:37:37.603Z,89.60
2019-02-26T11:40:05.556Z,89.50
2019-02-26T11:42:32.280Z,89.50
2019-02-26T11:44:59.468Z,89.50
2019-02-26T11:47:26.568Z,89.50
2019-02-26T11:49:53.228Z,89.50
2019-02-26T11:52:20.268Z,89.60
2019-02-26T11:54:46.937Z,89.40
2019-02-26T11:57:15.401Z,89.50
2019-02-26T11:59:42.859Z,89.50
2019-02-26T12:02:09.844Z,89.50
2019-02-26T12:04:37.814Z,89.50
2019-02-26T12:07:06.826Z,89.40
2019-02-26T12:09:35.677Z,89.40
2019-02-26T12:12:03.495Z,89.30
2019-02-26T12:14:30.588Z,89.40
2019-02-26T12:16:57.440Z,89.40
2019-02-26T12:19:25.639Z,89.40
2019-02-26T12:21:55.142Z,89.30
2019-02-26T12:24:21.682Z,89.40
2019-02-26T12:26:49.985Z,89.40
2019-02-26T12:29:18.697Z,89.30
2019-02-26T12:31:45.614Z,89.30
2019-02-26T12:34:14.612Z,89.30
2019-02-26T12:36:41.186Z,89.30
2019-02-26T12:39:08.338Z,90.00
2019-02-26T12:41:36.542Z,89.30
2019-02-26T12:44:08.141Z,89.20
2019-02-26T12:46:33.824Z,89.30
2019-02-26T12:49:03.059Z,89.30
2019-02-26T12:51:31.937Z,89.30
2019-02-26T12:53:57.461Z,89.20
2019-02-26T12:56:24.833Z,89.20
2019-02-26T12:58:54.562Z,89.30
2019-02-26T13:01:21.133Z,89.20
2019-02-26T13:03:53.971Z,89.20
2019-02-26T13:06:18.752Z,89.10
2019-02-26T13:08:47.152Z,89.90
2019-02-26T13:11:14.154Z,89.10
2019-02-26T13:13:41.986Z,89.10
2019-02-26T13:16:08.597Z,89.20
2019-02-26T13:18:35.287Z,89.00
2019-02-26T13:21:03.956Z,89.10
2019-02-26T13:23:30.361Z,89.10
2019-02-26T13:25:57.023Z,89.00
2019-02-26T13:28:29.534Z,89.00
2019-02-26T13:30:53.097Z,89.10
2019-02-26T13:33:26.377Z,89.00
2019-02-26T13:35:52.322Z,89.10
2019-02-26T13:38:16.968Z,89.00
2019-02-26T13:40:43.648Z,89.00
2019-02-26T13:43:10.263Z,89.00
2019-02-26T13:45:36.990Z,88.90
2019-02-26T13:48:03.684Z,88.90
2019-02-26T13:50:30.320Z,89.00
2019-02-26T13:52:56.934Z,88.90
2019-02-26T13:55:23.538Z,88.90
2019-02-26T13:57:50.281Z,88.90
2019-02-26T14:00:19.827Z,89.00
2019-02-26T14:02:45.378Z,88.90
2019-02-26T14:05:11.967Z,88.80
2019-02-26T14:07:38.610Z,88.90
2019-02-26T14:10:05.212Z,88.80
2019-02-26T14:12:34.906Z,88.80
2019-02-26T14:15:03.237Z,88.80
2019-02-26T14:17:29.928Z,88.80
2019-02-26T14:19:56.549Z,88.70
2019-02-26T14:22:27.445Z,88.80
2019-02-26T14:24:54.246Z,88.60
2019-02-26T14:27:20.946Z,88.60
2019-02-26T14:29:47.575Z,88.60
2019-02-26T14:32:14.150Z,88.40
2019-02-26T14:34:41.056Z,88.60
2019-02-26T14:37:08.062Z,88.40
2019-02-26T14:39:34.686Z,88.50
2019-02-26T14:42:01.364Z,88.60
2019-02-26T14:44:27.930Z,88.50
2019-02-26T14:46:55.310Z,88.40
2019-02-26T14:49:22.149Z,88.30
2019-02-26T14:51:48.756Z,88.50
2019-02-26T14:54:15.325Z,88.30
2019-02-26T14:56:41.943Z,88.30
2019-02-26T14:59:08.570Z,88.30
2019-02-26T15:01:35.166Z,88.20
2019-02-26T15:04:02.161Z,88.30
2019-02-26T15:06:28.760Z,88.30
2019-02-26T15:08:55.442Z,88.30
2019-02-26T15:11:22.003Z,88.20
2019-02-26T15:13:48.648Z,88.30
2019-02-26T15:16:15.413Z,88.20
2019-02-26T15:18:42.168Z,88.10
2019-02-26T15:21:08.870Z,88.10
2019-02-26T15:23:35.475Z,88.10
2019-02-26T15:26:02.107Z,88.10
2019-02-26T15:28:28.779Z,88.00
2019-02-26T15:30:55.431Z,88.00
2019-02-26T15:33:22.399Z,88.20
2019-02-26T15:35:49.372Z,88.00
2019-02-26T15:38:16.125Z,87.90
2019-02-26T15:40:43.550Z,88.00
2019-02-26T15:43:10.497Z,88.00
2019-02-26T15:45:37.382Z,87.90
2019-02-26T15:48:04.671Z,87.90
2019-02-26T15:50:31.341Z,87.90
2019-02-26T15:52:58.291Z,87.90
2019-02-26T15:55:28.693Z,87.90
2019-02-26T15:57:55.986Z,87.80
2019-02-26T16:00:23.013Z,87.90
2019-02-26T16:02:49.646Z,87.80
2019-02-26T16:07:55.180Z,86.00
2019-02-26T16:10:22.736Z,87.80
2019-02-26T16:12:49.675Z,87.70
2019-02-26T16:15:16.887Z,87.70
2019-02-26T16:17:43.859Z,87.70
2019-02-26T16:20:10.567Z,87.50
2019-02-26T16:22:37.289Z,87.60
2019-02-26T16:25:07.502Z,87.60
2019-02-26T16:27:37.666Z,87.60
2019-02-26T16:30:01.111Z,87.60
2019-02-26T16:32:27.818Z,87.60
2019-02-26T16:34:54.503Z,87.50
2019-02-26T16:37:21.583Z,87.50
2019-02-26T16:39:48.205Z,87.50
2019-02-26T16:42:14.922Z,87.50
2019-02-26T16:44:41.941Z,87.50
2019-02-26T16:47:08.782Z,87.50
2019-02-26T16:49:35.415Z,87.40
2019-02-26T16:52:04.386Z,87.40
2019-02-26T16:54:30.921Z,87.40
2019-02-26T16:56:58.698Z,87.30
2019-02-26T16:59:25.425Z,87.40
2019-02-26T17:01:52.614Z,87.30
2019-02-26T17:04:20.675Z,87.30
2019-02-26T17:06:47.554Z,87.20
2019-02-26T17:09:14.629Z,87.30
2019-02-26T17:11:41.668Z,87.30
2019-02-26T17:14:08.523Z,87.20
2019-02-26T17:16:35.404Z,87.30
2019-02-26T17:19:01.962Z,87.30
2019-02-26T17:21:30.599Z,87.30
2019-02-26T17:23:57.002Z,87.30
2019-02-26T17:26:23.704Z,87.30
2019-02-26T17:28:50.338Z,87.30
2019-02-26T17:31:17.841Z,87.30
2019-02-26T17:33:44.767Z,87.20
2019-02-26T17:36:12.989Z,87.20
2019-02-26T17:38:39.635Z,87.20
2019-02-26T17:41:06.463Z,87.30
2019-02-26T17:43:33.083Z,87.30
2019-02-26T17:46:00.049Z,87.30
2019-02-26T17:48:30.307Z,87.30
2019-02-26T17:50:57.862Z,87.30
2019-02-26T17:53:23.450Z,87.20
2019-02-26T17:55:50.056Z,87.20
2019-02-26T17:58:17.988Z,87.30
2019-02-26T18:00:46.038Z,87.20
2019-02-26T18:03:12.667Z,87.30
2019-02-26T18:05:50.636Z,87.30
2019-02-26T18:08:07.781Z,87.20
2019-02-26T18:10:36.575Z,87.30
2019-02-26T18:13:03.240Z,87.20
2019-02-26T18:15:30.174Z,87.30
2019-02-26T18:17:56.777Z,87.90
2019-02-26T18:20:27.753Z,87.30
2019-02-26T18:22:52.282Z,87.30
2019-02-26T18:25:18.871Z,87.30
2019-02-26T18:27:46.708Z,87.30
2019-02-26T18:30:15.080Z,87.30
2019-02-26T18:32:49.959Z,87.30
2019-02-26T18:35:10.460Z,87.30
2019-02-26T18:37:46.028Z,87.40
2019-02-26T18:40:07.501Z,87.30
2019-02-26T18:42:34.575Z,87.30
2019-02-26T18:45:02.279Z,87.20
2019-02-26T18:47:28.961Z,87.30
2019-02-26T18:49:56.088Z,87.30
2019-02-26T18:52:22.853Z,87.20
2019-02-26T18:54:51.751Z,87.30
2019-02-26T18:57:17.982Z,87.40
2019-02-26T18:59:46.341Z,87.30
2019-02-26T19:02:13.367Z,87.30
2019-02-26T19:04:39.992Z,87.30
2019-02-26T19:07:06.607Z,87.20
2019-02-26T19:09:33.427Z,87.30
2019-02-26T19:12:00.270Z,87.40
2019-02-26T19:14:26.872Z,87.30
2019-02-26T19:16:54.928Z,87.60
2019-02-26T19:19:21.975Z,87.40
2019-02-26T19:21:48.788Z,87.40
2019-02-26T19:24:15.530Z,87.40
2019-02-26T19:26:44.485Z,87.90
2019-02-26T19:29:10.740Z,87.40
2019-02-26T19:31:37.472Z,87.40
2019-02-26T19:34:05.331Z,87.40
2019-02-26T19:36:32.301Z,87.50
2019-02-26T19:39:00.868Z,87.40
2019-02-26T19:41:27.536Z,87.40
2019-02-26T19:43:54.173Z,87.50
2019-02-26T19:46:20.891Z,87.40
2019-02-26T19:48:47.767Z,87.40
2019-02-26T19:51:14.353Z,87.50
2019-02-26T19:53:40.989Z,87.50
2019-02-26T19:56:07.766Z,87.50
2019-02-26T19:58:34.571Z,87.50
2019-02-26T20:01:01.666Z,87.50
2019-02-26T20:03:39.241Z,88.30
2019-02-26T20:05:56.732Z,87.50
2019-02-26T20:08:23.574Z,87.50
2019-02-26T20:10:53.347Z,87.40
2019-02-26T20:13:18.731Z,87.50
2019-02-26T20:15:45.567Z,87.50
2019-02-26T20:18:20.263Z,87.60
2019-02-26T20:20:41.204Z,87.60
2019-02-26T20:23:07.947Z,87.60
2019-02-26T20:25:34.757Z,87.60
2019-02-26T20:28:05.292Z,87.60
2019-02-26T20:30:30.155Z,87.60
2019-02-26T20:32:56.701Z,87.60
2019-02-26T20:35:23.311Z,87.60
2019-02-26T20:37:49.920Z,87.70
2019-02-26T20:40:16.907Z,87.60
2019-02-26T20:42:43.599Z,87.60
2019-02-26T20:45:10.325Z,87.60
2019-02-26T20:47:37.028Z,87.50
2019-02-26T20:50:03.936Z,87.80
2019-02-26T20:52:33.372Z,87.80
2019-02-26T20:55:02.423Z,87.70
2019-02-26T20:57:29.729Z,87.80
2019-02-26T20:59:56.349Z,87.70
2019-02-26T21:02:23.995Z,87.70
2019-02-26T21:04:50.746Z,87.50
2019-02-26T21:07:17.515Z,87.80
2019-02-26T21:09:44.177Z,87.80
2019-02-26T21:12:10.798Z,87.70
2019-02-26T21:14:41.279Z,87.80
2019-02-26T21:17:08.064Z,87.80
2019-02-26T21:19:36.784Z,87.80
2019-02-26T21:22:03.378Z,87.80
2019-02-26T21:24:31.947Z,87.80
2019-02-26T21:26:59.152Z,87.80
2019-02-26T21:29:25.837Z,87.80
2019-02-26T21:31:52.743Z,88.00
2019-02-26T21:34:19.545Z,87.90
2019-02-26T21:36:46.179Z,88.00
2019-02-26T21:39:12.899Z,87.90
2019-02-26T21:41:39.565Z,87.80
2019-02-26T21:44:08.792Z,87.80
2019-02-26T21:46:34.857Z,88.70
2019-02-26T21:49:01.646Z,87.90
2019-02-26T21:51:28.231Z,87.90
2019-02-26T21:53:54.814Z,87.90
2019-02-26T21:56:21.548Z,87.30
2019-02-26T21:58:48.419Z,87.90
2019-02-26T22:01:15.019Z,88.00
2019-02-26T22:03:42.205Z,88.00
2019-02-26T22:06:10.909Z,88.00
2019-02-26T22:08:38.701Z,88.00
2019-02-26T22:11:05.353Z,88.10
2019-02-26T22:13:31.954Z,88.80
2019-02-26T22:15:58.736Z,88.10
2019-02-26T22:18:25.360Z,88.10
2019-02-26T22:20:51.919Z,88.10
2019-02-26T22:23:18.581Z,88.00
2019-02-26T22:25:45.247Z,88.10
2019-02-26T22:28:12.153Z,88.10
2019-02-26T22:30:39.235Z,88.10
2019-02-26T22:33:08.060Z,88.10
2019-02-26T22:35:35.535Z,88.10
2019-02-26T22:38:02.223Z,88.10
2019-02-26T22:40:29.656Z,88.10
2019-02-26T22:42:56.237Z,88.10
2019-02-26T22:45:22.821Z,88.20
2019-02-26T22:47:49.522Z,88.70
2019-02-26T22:52:55.868Z,86.10
2019-02-26T22:55:22.527Z,88.10
2019-02-26T22:57:49.259Z,88.20
2019-02-26T23:00:17.676Z,88.20
2019-02-26T23:02:44.611Z,88.20
2019-02-26T23:05:11.228Z,88.20
2019-02-26T23:07:39.950Z,88.20
2019-02-26T23:10:06.211Z,88.20
2019-02-26T23:12:32.773Z,88.40
2019-02-26T23:14:59.352Z,88.30
2019-02-26T23:17:25.972Z,88.30
2019-02-26T23:19:55.054Z,88.40
2019-02-26T23:22:23.326Z,88.40
2019-02-26T23:24:50.182Z,88.30
2019-02-26T23:27:18.126Z,88.00
2019-02-26T23:29:45.257Z,88.30
2019-02-26T23:32:12.148Z,88.30
2019-02-26T23:34:38.756Z,88.30
2019-02-26T23:37:05.356Z,88.30
2019-02-26T23:39:33.718Z,88.30
2019-02-26T23:42:00.494Z,88.40
2019-02-26T23:44:28.983Z,88.30
2019-02-26T23:46:55.525Z,89.10
2019-02-26T23:49:22.214Z,88.30
2019-02-26T23:51:51.001Z,88.30
2019-02-26T23:54:17.274Z,88.30
2019-02-26T23:56:43.924Z,88.30
2019-02-26T23:59:10.820Z,88.40
